East Deerfield, Massachusetts
Current Conditions -  °F | °C
As of 11:52 PM on Friday 24 Oct 2014 (Local Time) from KORE Reporting Station
Clear Clear  
Wind Chill: 44°   Ceiling: Unl
Heat Index: 47°   Visibility: 10mi
Dew Point: 40°   Wind: 7mph
Humidity: 77%   Direction: 360°N
Pressure: 29.77"   Gusts: NA
Location:  42.5381°N, 72.6067°W
Report Text: KORE 250352Z AUTO 36006KT 10SM CLR 08/04 A2977 RMK AO2 SLP085 T00830044
Loading
Personal Weather Stations






























Interactive Weather Map
Tropical Storm Tracking
New forecast layout! Learn more

10-Day Weather Forecast

Advertisements
Track Severe Weather on mobile